createdAt,value
2023-02-25T00:00:22.787Z,34.17
2023-02-25T00:03:06.721Z,36.03
2023-02-25T00:05:52.202Z,33.97
2023-02-25T00:08:36.197Z,39.70
2023-02-25T00:11:21.279Z,39.57
2023-02-25T00:14:05.198Z,39.07
2023-02-25T00:16:51.133Z,34.97
2023-02-25T00:19:35.064Z,36.43
2023-02-25T00:22:20.222Z,36.87
2023-02-25T00:25:05.190Z,38.00
2023-02-25T00:27:49.114Z,35.67
2023-02-25T00:30:33.365Z,36.27
2023-02-25T00:33:17.267Z,33.77
2023-02-25T00:36:00.977Z,37.83
2023-02-25T00:38:48.339Z,31.63
2023-02-25T00:41:33.107Z,35.23
2023-02-25T00:44:16.802Z,37.33
2023-02-25T00:47:00.728Z,32.93
2023-02-25T00:49:47.728Z,34.40
2023-02-25T00:52:31.637Z,38.30
2023-02-25T00:55:17.012Z,45.67
2023-02-25T00:58:02.144Z,33.47
2023-02-25T01:00:51.577Z,43.83
2023-02-25T01:03:35.679Z,38.80
2023-02-25T01:06:20.920Z,38.33
2023-02-25T01:09:07.785Z,40.00
2023-02-25T01:11:53.606Z,37.17
2023-02-25T01:14:38.185Z,41.87
2023-02-25T01:17:22.702Z,38.83
2023-02-25T01:20:12.449Z,44.90
2023-02-25T01:22:56.533Z,45.43
2023-02-25T01:25:42.130Z,39.73
2023-02-25T01:28:28.979Z,44.63
2023-02-25T01:31:18.705Z,39.93
2023-02-25T01:34:04.266Z,35.97
2023-02-25T01:36:48.653Z,35.93
2023-02-25T01:39:34.142Z,38.37
2023-02-25T01:42:18.984Z,33.73
2023-02-25T01:45:31.050Z,37.97
2023-02-25T01:48:18.531Z,40.67
2023-02-25T01:51:07.502Z,44.60
2023-02-25T01:53:51.554Z,41.37
2023-02-25T01:56:38.231Z,40.43
2023-02-25T01:59:28.610Z,37.97
2023-02-25T02:02:17.357Z,38.13
2023-02-25T02:05:01.961Z,41.93
2023-02-25T02:07:48.695Z,32.93
2023-02-25T02:10:33.316Z,45.03
2023-02-25T02:13:17.989Z,39.90
2023-02-25T02:16:41.652Z,36.53
2023-02-25T02:19:41.729Z,32.37
2023-02-25T02:22:32.214Z,35.93
2023-02-25T02:25:48.281Z,38.17
2023-02-25T02:29:13.480Z,36.07
2023-02-25T02:32:15.800Z,36.27
2023-02-25T02:35:10.323Z,47.53
2023-02-25T02:38:04.399Z,54.37
2023-02-25T02:40:56.014Z,50.43
2023-02-25T02:43:46.124Z,50.50
2023-02-25T02:46:35.604Z,49.07
2023-02-25T02:49:27.013Z,35.33
2023-02-25T02:52:16.977Z,37.20
2023-02-25T02:55:04.897Z,40.33
2023-02-25T02:57:50.237Z,40.60
2023-02-25T03:00:41.047Z,34.60
2023-02-25T03:03:36.386Z,39.50
2023-02-25T03:06:25.959Z,37.33
2023-02-25T03:09:13.758Z,36.00
2023-02-25T03:11:58.401Z,36.73
2023-02-25T03:14:43.673Z,39.17
2023-02-25T03:17:30.032Z,35.17
2023-02-25T03:20:20.681Z,34.43
2023-02-25T03:23:11.722Z,36.90
2023-02-25T03:26:06.563Z,34.27
2023-02-25T03:28:50.656Z,42.47
2023-02-25T03:31:40.782Z,37.33
2023-02-25T03:34:30.294Z,36.53
2023-02-25T03:37:18.407Z,34.43
2023-02-25T03:40:10.893Z,33.67
2023-02-25T03:43:02.754Z,35.60
2023-02-25T03:45:46.988Z,38.53
2023-02-25T03:48:31.536Z,43.13
2023-02-25T03:51:19.983Z,43.70
2023-02-25T03:54:04.442Z,38.03
2023-02-25T03:56:53.570Z,41.50
2023-02-25T03:59:38.552Z,39.70
2023-02-25T04:02:25.991Z,41.03
2023-02-25T04:05:11.286Z,40.37
2023-02-25T04:07:55.456Z,37.33
2023-02-25T04:10:44.038Z,41.60
2023-02-25T04:13:29.990Z,40.10
2023-02-25T04:16:15.221Z,40.03
2023-02-25T04:18:59.394Z,36.47
2023-02-25T04:21:43.533Z,32.30
2023-02-25T04:24:27.694Z,38.80
2023-02-25T04:27:15.619Z,36.77
2023-02-25T04:30:02.584Z,40.07
2023-02-25T04:32:48.500Z,47.97
2023-02-25T04:35:32.699Z,37.67
2023-02-25T04:38:16.725Z,45.67
2023-02-25T04:41:00.801Z,44.40
2023-02-25T04:43:45.460Z,44.57
2023-02-25T04:46:31.054Z,51.20
2023-02-25T04:49:14.968Z,41.83
2023-02-25T04:51:59.685Z,48.53
2023-02-25T04:54:43.798Z,43.20
2023-02-25T04:57:27.870Z,39.00
2023-02-25T05:00:18.948Z,41.73
2023-02-25T05:03:04.646Z,41.43
2023-02-25T05:05:48.465Z,41.87
2023-02-25T05:08:33.203Z,40.77
2023-02-25T05:11:17.333Z,37.33
2023-02-25T05:14:01.221Z,38.90
2023-02-25T05:16:45.970Z,44.43
2023-02-25T05:19:31.208Z,50.33
2023-02-25T05:22:15.285Z,44.67
2023-02-25T05:24:59.044Z,35.87
2023-02-25T05:27:43.264Z,37.67
2023-02-25T05:30:27.293Z,39.90
2023-02-25T05:33:13.687Z,46.03
2023-02-25T05:35:58.933Z,42.10
2023-02-25T05:38:43.409Z,41.93
2023-02-25T05:41:27.396Z,40.67
2023-02-25T05:44:12.070Z,36.10
2023-02-25T05:46:56.100Z,43.97
2023-02-25T05:49:39.883Z,45.90
2023-02-25T05:52:25.427Z,46.00
2023-02-25T05:55:10.528Z,37.20
2023-02-25T05:57:54.370Z,44.17
2023-02-25T06:00:38.545Z,48.67
2023-02-25T06:03:22.782Z,42.20
2023-02-25T06:06:08.468Z,41.63
2023-02-25T06:08:54.262Z,41.10
2023-02-25T06:11:38.022Z,40.07
2023-02-25T06:14:21.988Z,44.33
2023-02-25T06:17:06.130Z,34.70
2023-02-25T06:19:50.108Z,40.23
2023-02-25T06:22:34.180Z,42.73
2023-02-25T06:25:19.872Z,38.50
2023-02-25T06:28:04.335Z,37.60
2023-02-25T06:30:48.913Z,39.40
2023-02-25T06:33:33.377Z,46.27
2023-02-25T06:36:17.810Z,39.40
2023-02-25T06:39:02.535Z,40.73
2023-02-25T06:41:49.533Z,36.40
2023-02-25T06:44:33.675Z,33.97
2023-02-25T06:47:18.067Z,33.00
2023-02-25T06:50:02.820Z,34.73
2023-02-25T06:52:47.043Z,39.53
2023-02-25T06:55:31.045Z,34.00
2023-02-25T06:58:17.982Z,36.77
2023-02-25T07:01:01.837Z,37.70
2023-02-25T07:03:46.297Z,37.70
2023-02-25T07:06:30.091Z,35.63
2023-02-25T07:09:14.051Z,40.50
2023-02-25T07:11:57.960Z,35.67
2023-02-25T07:14:43.517Z,39.67
2023-02-25T07:17:27.676Z,36.73
2023-02-25T07:20:13.232Z,33.50
2023-02-25T07:22:57.469Z,38.97
2023-02-25T07:25:41.551Z,39.73
2023-02-25T07:28:25.716Z,42.47
2023-02-25T07:31:14.466Z,38.07
2023-02-25T07:34:03.635Z,40.93
2023-02-25T07:36:47.538Z,41.87
2023-02-25T07:39:31.542Z,41.70
2023-02-25T07:42:15.678Z,42.70
2023-02-25T07:45:05.319Z,40.33
2023-02-25T07:47:54.480Z,43.53
2023-02-25T07:50:38.786Z,44.60
2023-02-25T07:53:23.352Z,51.63
2023-02-25T07:56:08.834Z,41.87
2023-02-25T07:58:52.956Z,36.43
2023-02-25T08:01:37.519Z,37.33
2023-02-25T08:04:22.771Z,31.60
2023-02-25T08:07:06.905Z,36.40
2023-02-25T08:09:50.859Z,34.80
2023-02-25T08:12:34.979Z,32.60
2023-02-25T08:15:19.023Z,35.40
2023-02-25T08:18:02.962Z,34.90
2023-02-25T08:20:49.174Z,32.40
2023-02-25T08:23:33.148Z,31.07
2023-02-25T08:26:18.527Z,30.17
2023-02-25T08:29:02.713Z,31.90
2023-02-25T08:31:49.200Z,43.47
2023-02-25T08:34:33.166Z,38.27
2023-02-25T08:37:18.421Z,33.13
2023-02-25T08:40:02.228Z,32.90
2023-02-25T08:42:47.169Z,31.77
2023-02-25T08:45:31.168Z,29.40
2023-02-25T08:48:15.071Z,32.80
2023-02-25T08:51:03.799Z,34.17
2023-02-25T08:53:49.177Z,31.03
2023-02-25T08:56:32.975Z,24.80
2023-02-25T08:59:17.865Z,34.43
2023-02-25T09:02:01.764Z,28.67
2023-02-25T09:04:45.611Z,29.47
2023-02-25T09:07:29.578Z,31.37
2023-02-25T09:10:15.143Z,49.27
2023-02-25T09:12:58.953Z,39.13
2023-02-25T09:15:42.739Z,35.77
2023-02-25T09:18:26.900Z,78.43
2023-02-25T09:21:10.883Z,44.33
2023-02-25T09:23:54.689Z,27.58
2023-02-25T09:26:39.950Z,34.97
2023-02-25T09:29:23.750Z,26.80
2023-02-25T09:32:08.780Z,23.87
2023-02-25T09:34:52.969Z,28.70
2023-02-25T09:37:36.896Z,23.77
2023-02-25T09:40:22.971Z,23.57
2023-02-25T09:43:16.709Z,27.77
2023-02-25T09:46:09.969Z,23.53
2023-02-25T09:48:57.199Z,23.97
2023-02-25T09:51:45.816Z,23.67
2023-02-25T09:54:37.175Z,20.67
2023-02-25T09:57:23.524Z,19.47
2023-02-25T10:00:19.136Z,21.97
2023-02-25T10:03:12.549Z,17.15
2023-02-25T10:06:03.012Z,24.00
2023-02-25T10:08:53.713Z,21.02
2023-02-25T10:11:45.924Z,18.17
2023-02-25T10:14:57.310Z,16.25
2023-02-25T10:17:49.321Z,20.33
2023-02-25T10:20:46.602Z,16.90
2023-02-25T10:23:44.043Z,22.52
2023-02-25T10:26:30.886Z,23.90
2023-02-25T10:29:28.434Z,19.17
2023-02-25T10:32:19.317Z,14.93
2023-02-25T10:35:17.134Z,15.48
2023-02-25T10:38:01.225Z,13.48
2023-02-25T10:40:45.088Z,16.63
2023-02-25T10:43:29.043Z,13.95
2023-02-25T10:46:17.144Z,15.13
2023-02-25T10:49:02.382Z,19.17
2023-02-25T10:52:15.265Z,19.20
2023-02-25T10:54:59.669Z,17.58
2023-02-25T10:57:43.659Z,17.65
2023-02-25T11:00:30.086Z,19.55
2023-02-25T11:03:24.737Z,17.65
2023-02-25T11:06:12.113Z,15.80
2023-02-25T11:08:59.289Z,19.60
2023-02-25T11:11:55.166Z,15.43
2023-02-25T11:14:40.605Z,14.02
2023-02-25T11:17:28.004Z,18.90
2023-02-25T11:20:23.782Z,18.20
2023-02-25T11:23:07.582Z,18.65
2023-02-25T11:25:54.004Z,14.30
2023-02-25T11:28:42.068Z,21.88
2023-02-25T11:31:30.563Z,16.65
2023-02-25T11:34:20.976Z,16.95
2023-02-25T11:37:25.978Z,15.77
2023-02-25T11:40:28.005Z,18.60
2023-02-25T11:43:19.475Z,23.85
2023-02-25T11:46:06.713Z,14.52
2023-02-25T11:48:53.624Z,17.02
2023-02-25T11:51:47.151Z,18.35
2023-02-25T11:54:36.111Z,19.10
2023-02-25T11:57:24.736Z,14.82
2023-02-25T12:00:25.632Z,16.17
2023-02-25T12:03:35.657Z,14.73
2023-02-25T12:06:32.278Z,15.13
2023-02-25T12:09:50.702Z,14.55
2023-02-25T12:13:07.206Z,15.57
2023-02-25T12:16:14.820Z,14.45
2023-02-25T12:19:30.951Z,21.85
2023-02-25T12:22:30.065Z,15.95
2023-02-25T12:25:26.272Z,18.83
2023-02-25T12:28:45.499Z,14.13
2023-02-25T12:32:02.577Z,17.83
2023-02-25T12:35:08.403Z,17.02
2023-02-25T12:38:18.896Z,20.80
2023-02-25T12:41:15.932Z,16.20
2023-02-25T12:44:17.016Z,18.23
2023-02-25T12:47:16.776Z,15.63
2023-02-25T12:50:24.249Z,16.05
2023-02-25T12:53:22.302Z,18.25
2023-02-25T12:56:18.710Z,16.73
2023-02-25T12:59:35.678Z,16.40
2023-02-25T13:02:55.177Z,21.58
2023-02-25T13:06:06.007Z,16.80
2023-02-25T13:09:11.234Z,20.98
2023-02-25T13:12:12.234Z,19.70
2023-02-25T13:15:06.724Z,19.42
2023-02-25T13:18:09.340Z,17.70
2023-02-25T13:21:03.261Z,17.17
2023-02-25T13:24:07.866Z,16.92
2023-02-25T13:27:24.715Z,18.23
2023-02-25T13:30:25.125Z,16.13
2023-02-25T13:33:38.340Z,20.27
2023-02-25T13:36:42.472Z,16.17
2023-02-25T13:39:51.378Z,16.40
2023-02-25T13:43:00.915Z,17.80
2023-02-25T13:46:03.479Z,18.17
2023-02-25T13:49:10.937Z,16.70
2023-02-25T13:52:20.484Z,17.83
2023-02-25T13:55:25.267Z,15.70
2023-02-25T13:58:37.363Z,18.55
2023-02-25T14:01:32.231Z,21.33
2023-02-25T14:04:35.235Z,18.35
2023-02-25T14:07:55.989Z,16.80
2023-02-25T14:10:48.255Z,16.77
2023-02-25T14:13:55.568Z,15.35
2023-02-25T14:16:55.758Z,16.67
2023-02-25T14:19:48.380Z,18.23
2023-02-25T14:22:42.980Z,11.25
2023-02-25T14:25:43.006Z,20.00
2023-02-25T14:28:36.289Z,19.38
2023-02-25T14:31:27.999Z,20.33
2023-02-25T14:34:28.942Z,13.40
2023-02-25T14:37:27.617Z,16.60
2023-02-25T14:40:27.108Z,22.13
2023-02-25T14:43:32.469Z,19.42
2023-02-25T14:46:32.786Z,19.98
2023-02-25T14:49:26.627Z,17.92
2023-02-25T14:52:42.488Z,15.82
2023-02-25T14:55:35.072Z,17.00
2023-02-25T14:58:54.579Z,15.50
2023-02-25T15:01:54.773Z,15.00
2023-02-25T15:05:14.295Z,17.17
2023-02-25T15:08:19.680Z,17.73
2023-02-25T15:11:28.329Z,16.90
2023-02-25T15:14:47.698Z,17.95
2023-02-25T15:17:57.145Z,19.35
2023-02-25T15:20:42.357Z,20.75
2023-02-25T15:23:50.153Z,15.10
2023-02-25T15:26:44.135Z,20.75
2023-02-25T15:29:56.930Z,23.65
2023-02-25T15:33:07.909Z,16.40
2023-02-25T15:35:57.195Z,21.98
2023-02-25T15:38:46.521Z,21.92
2023-02-25T15:41:45.223Z,25.40
2023-02-25T15:44:39.438Z,25.55
2023-02-25T15:47:30.229Z,28.05
2023-02-25T15:50:49.595Z,31.48
2023-02-25T15:53:48.735Z,28.13
2023-02-25T15:56:49.686Z,29.23
2023-02-25T15:59:46.445Z,32.17
2023-02-25T16:02:42.401Z,73.30
2023-02-25T16:05:30.788Z,44.20
2023-02-25T16:08:23.576Z,35.35
2023-02-25T16:11:20.587Z,48.35
2023-02-25T16:14:09.769Z,37.85
2023-02-25T16:16:57.828Z,34.45
2023-02-25T16:19:43.530Z,48.80
2023-02-25T16:22:29.356Z,46.53
2023-02-25T16:25:16.355Z,33.47
2023-02-25T16:28:11.164Z,30.23
2023-02-25T16:31:03.084Z,23.83
2023-02-25T16:33:52.701Z,20.98
2023-02-25T16:36:44.387Z,22.13
2023-02-25T16:39:31.473Z,18.95
2023-02-25T16:42:18.180Z,27.73
2023-02-25T16:45:06.182Z,20.70
2023-02-25T16:47:57.148Z,20.45
2023-02-25T16:50:41.210Z,26.08
2023-02-25T16:53:28.205Z,20.45
2023-02-25T16:56:20.064Z,20.20
2023-02-25T16:59:16.660Z,24.00
2023-02-25T17:02:06.153Z,17.40
2023-02-25T17:04:52.000Z,14.27
2023-02-25T17:07:37.134Z,16.15
2023-02-25T17:10:27.426Z,19.52
2023-02-25T17:13:17.143Z,16.87
2023-02-25T17:16:04.030Z,22.25
2023-02-25T17:18:52.003Z,16.90
2023-02-25T17:21:37.626Z,19.00
2023-02-25T17:24:25.957Z,27.10
2023-02-25T17:27:12.442Z,18.17
2023-02-25T17:29:56.366Z,16.63
2023-02-25T17:32:40.231Z,20.23
2023-02-25T17:35:26.376Z,18.60
2023-02-25T17:38:17.358Z,17.23
2023-02-25T17:41:01.590Z,16.60
2023-02-25T17:43:46.092Z,13.30
2023-02-25T17:46:36.456Z,18.93
2023-02-25T17:49:22.837Z,15.13
2023-02-25T17:52:16.536Z,14.37
2023-02-25T17:55:03.329Z,12.90
2023-02-25T17:57:47.885Z,14.73
2023-02-25T18:00:34.154Z,15.60
2023-02-25T18:03:20.258Z,15.90
2023-02-25T18:06:04.487Z,20.57
2023-02-25T18:08:54.266Z,13.60
2023-02-25T18:11:41.566Z,14.13
2023-02-25T18:14:33.409Z,13.17
2023-02-25T18:17:25.357Z,12.73
2023-02-25T18:20:28.934Z,16.85
2023-02-25T18:23:21.898Z,13.80
2023-02-25T18:26:16.051Z,17.67
2023-02-25T18:28:59.915Z,16.63
2023-02-25T18:31:44.188Z,14.93
2023-02-25T18:34:28.264Z,18.03
2023-02-25T18:37:17.521Z,12.57
2023-02-25T18:40:02.132Z,12.23
2023-02-25T18:42:48.583Z,13.50
2023-02-25T18:45:34.446Z,17.10
2023-02-25T18:48:18.190Z,12.87
2023-02-25T18:51:02.271Z,22.27
2023-02-25T18:53:46.934Z,16.83
2023-02-25T18:56:31.013Z,13.80
2023-02-25T18:59:16.334Z,19.07
2023-02-25T19:02:00.326Z,16.30
2023-02-25T19:04:44.730Z,13.07
2023-02-25T19:07:30.867Z,14.00
2023-02-25T19:10:17.372Z,18.80
2023-02-25T19:13:04.275Z,14.30
2023-02-25T19:15:49.479Z,13.33
2023-02-25T19:18:33.454Z,19.00
2023-02-25T19:21:19.308Z,13.43
2023-02-25T19:24:03.546Z,15.63
2023-02-25T19:26:47.608Z,14.30
2023-02-25T19:29:31.525Z,16.10
2023-02-25T19:32:17.778Z,15.50
2023-02-25T19:35:04.464Z,12.70
2023-02-25T19:37:48.408Z,12.07
2023-02-25T19:40:32.283Z,14.50
2023-02-25T19:43:17.800Z,14.40
2023-02-25T19:46:02.775Z,12.17
2023-02-25T19:48:48.605Z,14.00
2023-02-25T19:51:32.584Z,14.43
2023-02-25T19:54:16.667Z,17.83
2023-02-25T19:57:00.635Z,8.93
2023-02-25T19:59:44.647Z,13.23
2023-02-25T20:02:28.492Z,13.57
2023-02-25T20:05:14.675Z,17.23
2023-02-25T20:07:58.447Z,14.63
2023-02-25T20:10:44.020Z,11.07
2023-02-25T20:13:27.806Z,13.53
2023-02-25T20:16:11.545Z,10.80
2023-02-25T20:18:57.600Z,11.27
2023-02-25T20:21:42.922Z,17.90
2023-02-25T20:24:27.278Z,17.53
2023-02-25T20:27:11.038Z,16.20
2023-02-25T20:29:55.364Z,18.73
2023-02-25T20:32:39.255Z,13.70
2023-02-25T20:35:26.157Z,12.70
2023-02-25T20:38:28.231Z,19.27
2023-02-25T20:41:14.367Z,16.00
2023-02-25T20:43:58.392Z,17.57
2023-02-25T20:46:42.811Z,14.40
2023-02-25T20:49:27.068Z,17.60
2023-02-25T20:52:13.604Z,13.80
2023-02-25T20:54:59.287Z,12.10
2023-02-25T20:57:43.003Z,13.10
2023-02-25T21:00:27.566Z,16.07
2023-02-25T21:03:11.604Z,18.03
2023-02-25T21:05:55.513Z,16.43
2023-02-25T21:08:39.728Z,15.30
2023-02-25T21:11:25.505Z,12.00
2023-02-25T21:14:10.514Z,17.63
2023-02-25T21:16:55.296Z,13.67
2023-02-25T21:19:39.470Z,22.33
2023-02-25T21:22:23.199Z,15.43
2023-02-25T21:25:07.253Z,20.93
2023-02-25T21:27:52.626Z,15.87
2023-02-25T21:30:36.517Z,15.30
2023-02-25T21:33:20.522Z,17.53
2023-02-25T21:36:05.599Z,16.30
2023-02-25T21:38:49.412Z,18.37
2023-02-25T21:41:33.161Z,16.37
2023-02-25T21:44:18.325Z,15.60
2023-02-25T21:47:02.061Z,20.13
2023-02-25T21:49:46.250Z,16.57
2023-02-25T21:52:30.888Z,16.77
2023-02-25T21:55:14.645Z,19.50
2023-02-25T21:57:58.507Z,22.77
2023-02-25T22:00:44.086Z,16.77
2023-02-25T22:03:27.863Z,21.37
2023-02-25T22:06:13.010Z,17.60
2023-02-25T22:08:57.821Z,19.03
2023-02-25T22:11:41.732Z,13.30
2023-02-25T22:14:26.326Z,14.60
2023-02-25T22:17:11.555Z,18.70
2023-02-25T22:19:55.339Z,15.73
2023-02-25T22:22:39.197Z,13.07
2023-02-25T22:25:23.254Z,19.53
2023-02-25T22:28:07.039Z,19.03
2023-02-25T22:30:50.937Z,16.50
2023-02-25T22:33:36.181Z,16.23
2023-02-25T22:36:21.056Z,16.50
2023-02-25T22:39:06.350Z,13.80
2023-02-25T22:41:50.911Z,16.37
2023-02-25T22:44:34.835Z,18.20
2023-02-25T22:47:18.721Z,19.83
2023-02-25T22:50:04.093Z,20.03
2023-02-25T22:52:48.719Z,14.80
2023-02-25T22:55:34.512Z,17.50
2023-02-25T22:58:18.418Z,16.30
2023-02-25T23:01:02.233Z,16.97
2023-02-25T23:03:46.446Z,15.30
2023-02-25T23:06:46.035Z,16.53
2023-02-25T23:09:30.399Z,19.37
2023-02-25T23:12:14.390Z,12.00
2023-02-25T23:14:58.487Z,14.60
2023-02-25T23:17:42.473Z,17.10
2023-02-25T23:20:26.470Z,17.47
2023-02-25T23:23:17.459Z,15.07
2023-02-25T23:26:01.230Z,16.77
2023-02-25T23:28:45.533Z,15.83
2023-02-25T23:31:31.877Z,18.63
2023-02-25T23:34:19.878Z,17.10
2023-02-25T23:37:03.804Z,16.80
2023-02-25T23:39:49.082Z,13.60
2023-02-25T23:42:34.091Z,16.90
2023-02-25T23:45:18.305Z,16.53
2023-02-25T23:48:02.123Z,16.40
2023-02-25T23:50:45.906Z,16.40
2023-02-25T23:53:29.727Z,17.83
2023-02-25T23:56:15.488Z,11.87
2023-02-25T23:58:59.890Z,12.10
